sensor_id;sensor_type;location;lat;lon;timestamp;P1;durP1;ratioP1;P2;durP2;ratioP2
14770;SDS011;7477;45.222;5.688;2023-08-31T00:01:22;4.65;;;2.42;;
14770;SDS011;7477;45.222;5.688;2023-08-31T00:04:41;2.63;;;2.25;;
14770;SDS011;7477;45.222;5.688;2023-08-31T00:08:00;6.75;;;2.47;;
14770;SDS011;7477;45.222;5.688;2023-08-31T00:11:20;3.47;;;2.63;;
14770;SDS011;7477;45.222;5.688;2023-08-31T00:14:39;2.67;;;2.47;;
14770;SDS011;7477;45.222;5.688;2023-08-31T00:17:59;2.88;;;2.58;;
14770;SDS011;7477;45.222;5.688;2023-08-31T00:21:18;4.30;;;2.53;;
14770;SDS011;7477;45.222;5.688;2023-08-31T00:24:37;3.92;;;2.53;;
14770;SDS011;7477;45.222;5.688;2023-08-31T00:27:57;3.70;;;2.72;;
14770;SDS011;7477;45.222;5.688;2023-08-31T00:31:22;2.45;;;2.22;;
14770;SDS011;7477;45.222;5.688;2023-08-31T00:34:42;4.20;;;2.42;;
14770;SDS011;7477;45.222;5.688;2023-08-31T00:38:01;2.67;;;2.45;;
14770;SDS011;7477;45.222;5.688;2023-08-31T00:41:23;2.75;;;2.55;;
14770;SDS011;7477;45.222;5.688;2023-08-31T00:44:42;2.63;;;2.03;;
14770;SDS011;7477;45.222;5.688;2023-08-31T00:48:01;6.30;;;2.35;;
14770;SDS011;7477;45.222;5.688;2023-08-31T00:51:21;2.65;;;2.05;;
14770;SDS011;7477;45.222;5.688;2023-08-31T00:54:40;4.25;;;2.38;;
14770;SDS011;7477;45.222;5.688;2023-08-31T00:58:01;2.85;;;2.55;;
14770;SDS011;7477;45.222;5.688;2023-08-31T01:05:01;2.50;;;2.20;;
14770;SDS011;7477;45.222;5.688;2023-08-31T01:08:44;2.70;;;2.40;;
14770;SDS011;7477;45.222;5.688;2023-08-31T01:12:13;3.28;;;2.10;;
14770;SDS011;7477;45.222;5.688;2023-08-31T01:15:56;3.72;;;2.30;;
14770;SDS011;7477;45.222;5.688;2023-08-31T01:19:31;2.92;;;2.53;;
14770;SDS011;7477;45.222;5.688;2023-08-31T01:23:15;4.20;;;2.38;;
14770;SDS011;7477;45.222;5.688;2023-08-31T01:26:37;4.43;;;2.58;;
14770;SDS011;7477;45.222;5.688;2023-08-31T01:29:57;3.58;;;2.75;;
14770;SDS011;7477;45.222;5.688;2023-08-31T01:33:17;2.70;;;2.50;;
14770;SDS011;7477;45.222;5.688;2023-08-31T01:36:36;4.07;;;2.47;;
14770;SDS011;7477;45.222;5.688;2023-08-31T01:40:02;4.07;;;3.00;;
14770;SDS011;7477;45.222;5.688;2023-08-31T01:43:29;4.28;;;3.03;;
14770;SDS011;7477;45.222;5.688;2023-08-31T01:46:52;3.20;;;2.80;;
14770;SDS011;7477;45.222;5.688;2023-08-31T01:50:14;4.75;;;2.50;;
14770;SDS011;7477;45.222;5.688;2023-08-31T01:53:34;3.83;;;3.10;;
14770;SDS011;7477;45.222;5.688;2023-08-31T01:56:53;3.22;;;2.92;;
14770;SDS011;7477;45.222;5.688;2023-08-31T02:00:13;3.55;;;2.90;;
14770;SDS011;7477;45.222;5.688;2023-08-31T02:03:33;4.40;;;3.55;;
14770;SDS011;7477;45.222;5.688;2023-08-31T02:06:52;4.95;;;3.28;;
14770;SDS011;7477;45.222;5.688;2023-08-31T02:10:11;3.90;;;3.10;;
14770;SDS011;7477;45.222;5.688;2023-08-31T02:13:31;4.97;;;3.35;;
14770;SDS011;7477;45.222;5.688;2023-08-31T02:16:50;4.55;;;3.05;;
14770;SDS011;7477;45.222;5.688;2023-08-31T02:20:09;10.20;;;4.30;;
14770;SDS011;7477;45.222;5.688;2023-08-31T02:23:29;3.05;;;2.67;;
14770;SDS011;7477;45.222;5.688;2023-08-31T02:26:48;3.30;;;3.00;;
14770;SDS011;7477;45.222;5.688;2023-08-31T02:30:08;5.00;;;3.17;;
14770;SDS011;7477;45.222;5.688;2023-08-31T02:33:27;3.10;;;2.80;;
14770;SDS011;7477;45.222;5.688;2023-08-31T02:36:46;3.15;;;2.63;;
14770;SDS011;7477;45.222;5.688;2023-08-31T02:40:06;3.25;;;2.95;;
14770;SDS011;7477;45.222;5.688;2023-08-31T02:43:27;3.72;;;3.10;;
14770;SDS011;7477;45.222;5.688;2023-08-31T02:46:47;3.58;;;3.05;;
14770;SDS011;7477;45.222;5.688;2023-08-31T02:50:06;5.53;;;2.90;;
14770;SDS011;7477;45.222;5.688;2023-08-31T02:53:26;5.22;;;3.30;;
14770;SDS011;7477;45.222;5.688;2023-08-31T02:56:46;3.28;;;2.97;;
14770;SDS011;7477;45.222;5.688;2023-08-31T03:00:05;3.05;;;2.75;;
14770;SDS011;7477;45.222;5.688;2023-08-31T03:03:29;4.15;;;2.78;;
14770;SDS011;7477;45.222;5.688;2023-08-31T03:06:48;3.50;;;2.20;;
14770;SDS011;7477;45.222;5.688;2023-08-31T03:10:07;3.78;;;2.50;;
14770;SDS011;7477;45.222;5.688;2023-08-31T03:13:26;3.03;;;2.70;;
14770;SDS011;7477;45.222;5.688;2023-08-31T03:16:46;4.85;;;2.85;;
14770;SDS011;7477;45.222;5.688;2023-08-31T03:20:05;4.80;;;2.78;;
14770;SDS011;7477;45.222;5.688;2023-08-31T03:23:25;3.10;;;2.80;;
14770;SDS011;7477;45.222;5.688;2023-08-31T03:26:45;3.28;;;2.65;;
14770;SDS011;7477;45.222;5.688;2023-08-31T03:30:04;3.60;;;2.70;;
14770;SDS011;7477;45.222;5.688;2023-08-31T03:33:24;5.72;;;3.30;;
14770;SDS011;7477;45.222;5.688;2023-08-31T03:36:43;3.35;;;3.00;;
14770;SDS011;7477;45.222;5.688;2023-08-31T03:40:03;3.80;;;2.60;;
14770;SDS011;7477;45.222;5.688;2023-08-31T03:43:25;3.35;;;2.90;;
14770;SDS011;7477;45.222;5.688;2023-08-31T03:46:44;3.25;;;2.60;;
14770;SDS011;7477;45.222;5.688;2023-08-31T03:50:04;4.60;;;2.88;;
14770;SDS011;7477;45.222;5.688;2023-08-31T03:53:23;4.95;;;3.10;;
14770;SDS011;7477;45.222;5.688;2023-08-31T03:56:43;3.45;;;2.72;;
14770;SDS011;7477;45.222;5.688;2023-08-31T04:00:02;3.35;;;2.85;;
14770;SDS011;7477;45.222;5.688;2023-08-31T04:03:27;3.97;;;2.83;;
14770;SDS011;7477;45.222;5.688;2023-08-31T04:06:46;5.78;;;2.33;;
14770;SDS011;7477;45.222;5.688;2023-08-31T04:10:05;7.78;;;3.15;;
14770;SDS011;7477;45.222;5.688;2023-08-31T04:13:24;3.90;;;2.88;;
14770;SDS011;7477;45.222;5.688;2023-08-31T04:16:44;6.10;;;2.88;;
14770;SDS011;7477;45.222;5.688;2023-08-31T04:20:05;6.75;;;2.97;;
14770;SDS011;7477;45.222;5.688;2023-08-31T04:23:25;3.22;;;2.67;;
14770;SDS011;7477;45.222;5.688;2023-08-31T04:26:44;5.90;;;2.75;;
14770;SDS011;7477;45.222;5.688;2023-08-31T04:30:04;4.80;;;3.03;;
14770;SDS011;7477;45.222;5.688;2023-08-31T04:33:25;4.07;;;2.75;;
14770;SDS011;7477;45.222;5.688;2023-08-31T04:36:45;3.47;;;2.30;;
14770;SDS011;7477;45.222;5.688;2023-08-31T04:43:25;4.18;;;3.00;;
14770;SDS011;7477;45.222;5.688;2023-08-31T04:46:44;3.67;;;2.97;;
14770;SDS011;7477;45.222;5.688;2023-08-31T04:50:03;5.07;;;3.30;;
14770;SDS011;7477;45.222;5.688;2023-08-31T04:53:25;3.70;;;2.83;;
14770;SDS011;7477;45.222;5.688;2023-08-31T04:56:44;3.28;;;2.95;;
14770;SDS011;7477;45.222;5.688;2023-08-31T05:00:03;5.93;;;2.95;;
14770;SDS011;7477;45.222;5.688;2023-08-31T05:03:23;7.75;;;2.70;;
14770;SDS011;7477;45.222;5.688;2023-08-31T05:06:42;3.33;;;2.83;;
14770;SDS011;7477;45.222;5.688;2023-08-31T05:10:02;3.30;;;2.40;;
14770;SDS011;7477;45.222;5.688;2023-08-31T05:13:22;4.30;;;2.35;;
14770;SDS011;7477;45.222;5.688;2023-08-31T05:16:41;3.97;;;2.75;;
14770;SDS011;7477;45.222;5.688;2023-08-31T05:20:00;5.43;;;3.20;;
14770;SDS011;7477;45.222;5.688;2023-08-31T05:23:19;7.75;;;2.88;;
14770;SDS011;7477;45.222;5.688;2023-08-31T05:26:39;4.03;;;2.55;;
14770;SDS011;7477;45.222;5.688;2023-08-31T05:29:58;3.45;;;2.90;;
14770;SDS011;7477;45.222;5.688;2023-08-31T05:33:17;3.85;;;3.13;;
14770;SDS011;7477;45.222;5.688;2023-08-31T05:36:37;5.60;;;3.10;;
14770;SDS011;7477;45.222;5.688;2023-08-31T05:39:56;6.03;;;3.17;;
14770;SDS011;7477;45.222;5.688;2023-08-31T05:43:15;4.63;;;3.08;;
14770;SDS011;7477;45.222;5.688;2023-08-31T05:46:35;5.70;;;3.17;;
14770;SDS011;7477;45.222;5.688;2023-08-31T05:49:55;5.72;;;2.97;;
14770;SDS011;7477;45.222;5.688;2023-08-31T05:53:14;4.82;;;3.25;;
14770;SDS011;7477;45.222;5.688;2023-08-31T05:56:33;4.45;;;3.22;;
14770;SDS011;7477;45.222;5.688;2023-08-31T05:59:52;3.35;;;2.85;;
14770;SDS011;7477;45.222;5.688;2023-08-31T06:03:11;3.45;;;2.80;;
14770;SDS011;7477;45.222;5.688;2023-08-31T06:06:30;3.30;;;2.80;;
14770;SDS011;7477;45.222;5.688;2023-08-31T06:09:51;4.50;;;3.30;;
14770;SDS011;7477;45.222;5.688;2023-08-31T06:13:10;3.70;;;3.20;;
14770;SDS011;7477;45.222;5.688;2023-08-31T06:16:29;3.17;;;2.50;;
14770;SDS011;7477;45.222;5.688;2023-08-31T06:19:48;5.57;;;3.28;;
14770;SDS011;7477;45.222;5.688;2023-08-31T06:23:08;7.22;;;3.60;;
14770;SDS011;7477;45.222;5.688;2023-08-31T06:26:28;3.83;;;3.00;;
14770;SDS011;7477;45.222;5.688;2023-08-31T06:29:47;4.25;;;3.53;;
14770;SDS011;7477;45.222;5.688;2023-08-31T06:33:07;7.00;;;3.92;;
14770;SDS011;7477;45.222;5.688;2023-08-31T06:36:26;3.28;;;2.88;;
14770;SDS011;7477;45.222;5.688;2023-08-31T06:39:45;3.88;;;2.72;;
14770;SDS011;7477;45.222;5.688;2023-08-31T06:43:04;4.15;;;3.03;;
14770;SDS011;7477;45.222;5.688;2023-08-31T06:46:23;3.10;;;2.65;;
14770;SDS011;7477;45.222;5.688;2023-08-31T06:49:43;3.20;;;2.78;;
14770;SDS011;7477;45.222;5.688;2023-08-31T06:53:02;4.45;;;2.85;;
14770;SDS011;7477;45.222;5.688;2023-08-31T06:56:22;8.52;;;3.50;;
14770;SDS011;7477;45.222;5.688;2023-08-31T06:59:41;5.15;;;2.95;;
14770;SDS011;7477;45.222;5.688;2023-08-31T07:03:01;4.30;;;3.20;;
14770;SDS011;7477;45.222;5.688;2023-08-31T07:06:21;4.18;;;2.70;;
14770;SDS011;7477;45.222;5.688;2023-08-31T07:09:42;5.35;;;3.67;;
14770;SDS011;7477;45.222;5.688;2023-08-31T07:13:03;5.80;;;3.00;;
14770;SDS011;7477;45.222;5.688;2023-08-31T07:16:23;4.20;;;2.88;;
14770;SDS011;7477;45.222;5.688;2023-08-31T07:19:42;3.67;;;3.20;;
14770;SDS011;7477;45.222;5.688;2023-08-31T07:23:02;4.45;;;2.95;;
14770;SDS011;7477;45.222;5.688;2023-08-31T07:26:21;5.45;;;3.05;;
14770;SDS011;7477;45.222;5.688;2023-08-31T07:29:41;4.25;;;3.05;;
14770;SDS011;7477;45.222;5.688;2023-08-31T07:33:00;3.80;;;3.40;;
14770;SDS011;7477;45.222;5.688;2023-08-31T07:36:22;3.38;;;2.90;;
14770;SDS011;7477;45.222;5.688;2023-08-31T07:39:41;3.25;;;2.83;;
14770;SDS011;7477;45.222;5.688;2023-08-31T07:43:00;3.97;;;3.45;;
14770;SDS011;7477;45.222;5.688;2023-08-31T07:46:19;3.67;;;2.97;;
14770;SDS011;7477;45.222;5.688;2023-08-31T07:49:38;5.57;;;2.92;;
14770;SDS011;7477;45.222;5.688;2023-08-31T07:52:57;4.22;;;3.20;;
14770;SDS011;7477;45.222;5.688;2023-08-31T07:56:17;3.83;;;2.83;;
14770;SDS011;7477;45.222;5.688;2023-08-31T07:59:36;3.83;;;3.03;;
14770;SDS011;7477;45.222;5.688;2023-08-31T08:02:58;7.65;;;3.47;;
14770;SDS011;7477;45.222;5.688;2023-08-31T08:06:17;5.97;;;3.35;;
14770;SDS011;7477;45.222;5.688;2023-08-31T08:09:36;6.45;;;3.58;;
14770;SDS011;7477;45.222;5.688;2023-08-31T08:12:55;5.53;;;4.30;;
14770;SDS011;7477;45.222;5.688;2023-08-31T08:16:15;5.65;;;3.30;;
14770;SDS011;7477;45.222;5.688;2023-08-31T08:19:34;6.78;;;3.17;;
14770;SDS011;7477;45.222;5.688;2023-08-31T08:22:53;7.72;;;3.30;;
14770;SDS011;7477;45.222;5.688;2023-08-31T08:26:12;6.60;;;3.65;;
14770;SDS011;7477;45.222;5.688;2023-08-31T08:29:31;4.38;;;3.55;;
14770;SDS011;7477;45.222;5.688;2023-08-31T08:32:50;4.75;;;3.90;;
14770;SDS011;7477;45.222;5.688;2023-08-31T08:36:10;4.68;;;3.42;;
14770;SDS011;7477;45.222;5.688;2023-08-31T08:39:29;4.50;;;3.53;;
14770;SDS011;7477;45.222;5.688;2023-08-31T08:42:48;3.90;;;3.50;;
14770;SDS011;7477;45.222;5.688;2023-08-31T08:46:11;4.82;;;3.50;;
14770;SDS011;7477;45.222;5.688;2023-08-31T08:49:31;7.93;;;3.33;;
14770;SDS011;7477;45.222;5.688;2023-08-31T08:52:50;5.75;;;3.80;;
14770;SDS011;7477;45.222;5.688;2023-08-31T08:56:10;4.53;;;3.47;;
14770;SDS011;7477;45.222;5.688;2023-08-31T08:59:30;3.38;;;2.65;;
14770;SDS011;7477;45.222;5.688;2023-08-31T09:02:49;5.07;;;3.22;;
14770;SDS011;7477;45.222;5.688;2023-08-31T09:06:08;6.15;;;3.13;;
14770;SDS011;7477;45.222;5.688;2023-08-31T09:09:29;4.57;;;2.95;;
14770;SDS011;7477;45.222;5.688;2023-08-31T09:12:48;5.53;;;3.45;;
14770;SDS011;7477;45.222;5.688;2023-08-31T09:16:12;6.22;;;3.33;;
14770;SDS011;7477;45.222;5.688;2023-08-31T09:19:58;2.78;;;2.47;;
14770;SDS011;7477;45.222;5.688;2023-08-31T09:23:24;4.32;;;3.08;;
14770;SDS011;7477;45.222;5.688;2023-08-31T09:26:44;7.47;;;3.60;;
14770;SDS011;7477;45.222;5.688;2023-08-31T09:30:08;3.25;;;2.45;;
14770;SDS011;7477;45.222;5.688;2023-08-31T09:33:28;3.20;;;2.33;;
14770;SDS011;7477;45.222;5.688;2023-08-31T09:36:48;3.08;;;2.55;;
14770;SDS011;7477;45.222;5.688;2023-08-31T09:40:09;4.57;;;2.63;;
14770;SDS011;7477;45.222;5.688;2023-08-31T09:43:28;2.95;;;2.30;;
14770;SDS011;7477;45.222;5.688;2023-08-31T09:46:47;3.90;;;2.55;;
14770;SDS011;7477;45.222;5.688;2023-08-31T09:50:06;2.92;;;2.50;;
14770;SDS011;7477;45.222;5.688;2023-08-31T09:53:26;3.75;;;2.42;;
14770;SDS011;7477;45.222;5.688;2023-08-31T09:56:49;3.15;;;2.65;;
14770;SDS011;7477;45.222;5.688;2023-08-31T10:00:13;3.75;;;2.70;;
14770;SDS011;7477;45.222;5.688;2023-08-31T10:03:37;3.97;;;2.28;;
14770;SDS011;7477;45.222;5.688;2023-08-31T10:06:58;3.47;;;2.50;;
14770;SDS011;7477;45.222;5.688;2023-08-31T10:10:18;2.20;;;2.00;;
14770;SDS011;7477;45.222;5.688;2023-08-31T10:13:41;3.95;;;2.35;;
14770;SDS011;7477;45.222;5.688;2023-08-31T10:17:02;2.33;;;2.08;;
14770;SDS011;7477;45.222;5.688;2023-08-31T10:20:22;4.40;;;2.50;;
14770;SDS011;7477;45.222;5.688;2023-08-31T10:23:45;2.55;;;2.10;;
14770;SDS011;7477;45.222;5.688;2023-08-31T10:27:18;3.10;;;2.08;;
14770;SDS011;7477;45.222;5.688;2023-08-31T10:30:38;4.57;;;2.15;;
14770;SDS011;7477;45.222;5.688;2023-08-31T10:34:00;2.70;;;2.15;;
14770;SDS011;7477;45.222;5.688;2023-08-31T10:37:26;2.17;;;1.95;;
14770;SDS011;7477;45.222;5.688;2023-08-31T10:40:59;2.30;;;2.10;;
14770;SDS011;7477;45.222;5.688;2023-08-31T10:44:19;2.30;;;2.10;;
14770;SDS011;7477;45.222;5.688;2023-08-31T10:47:42;3.17;;;2.10;;
14770;SDS011;7477;45.222;5.688;2023-08-31T10:51:01;4.30;;;2.20;;
14770;SDS011;7477;45.222;5.688;2023-08-31T10:54:25;2.88;;;2.10;;
14770;SDS011;7477;45.222;5.688;2023-08-31T10:57:46;3.70;;;1.92;;
14770;SDS011;7477;45.222;5.688;2023-08-31T11:01:05;3.08;;;1.80;;
14770;SDS011;7477;45.222;5.688;2023-08-31T11:04:28;3.00;;;2.15;;
14770;SDS011;7477;45.222;5.688;2023-08-31T11:07:49;2.22;;;1.90;;
14770;SDS011;7477;45.222;5.688;2023-08-31T11:11:11;3.63;;;2.33;;
14770;SDS011;7477;45.222;5.688;2023-08-31T11:14:31;2.83;;;2.20;;
14770;SDS011;7477;45.222;5.688;2023-08-31T11:17:50;3.55;;;2.47;;
14770;SDS011;7477;45.222;5.688;2023-08-31T11:21:11;1.92;;;1.80;;
14770;SDS011;7477;45.222;5.688;2023-08-31T11:24:30;2.88;;;2.25;;
14770;SDS011;7477;45.222;5.688;2023-08-31T11:31:23;3.50;;;2.15;;
14770;SDS011;7477;45.222;5.688;2023-08-31T11:34:44;2.72;;;2.28;;
14770;SDS011;7477;45.222;5.688;2023-08-31T11:38:04;2.22;;;2.00;;
14770;SDS011;7477;45.222;5.688;2023-08-31T11:41:23;2.80;;;2.35;;
14770;SDS011;7477;45.222;5.688;2023-08-31T11:44:42;5.75;;;2.20;;
14770;SDS011;7477;45.222;5.688;2023-08-31T11:48:02;3.65;;;2.10;;
14770;SDS011;7477;45.222;5.688;2023-08-31T11:51:22;4.38;;;2.38;;
14770;SDS011;7477;45.222;5.688;2023-08-31T11:54:42;4.32;;;2.30;;
14770;SDS011;7477;45.222;5.688;2023-08-31T11:58:01;3.50;;;2.22;;
14770;SDS011;7477;45.222;5.688;2023-08-31T12:01:22;2.35;;;2.08;;
14770;SDS011;7477;45.222;5.688;2023-08-31T12:04:42;2.55;;;2.20;;
14770;SDS011;7477;45.222;5.688;2023-08-31T12:08:03;6.35;;;2.22;;
14770;SDS011;7477;45.222;5.688;2023-08-31T12:11:23;4.00;;;2.10;;
14770;SDS011;7477;45.222;5.688;2023-08-31T12:14:42;2.17;;;1.98;;
14770;SDS011;7477;45.222;5.688;2023-08-31T12:18:09;2.78;;;2.08;;
14770;SDS011;7477;45.222;5.688;2023-08-31T12:21:29;2.63;;;2.10;;
14770;SDS011;7477;45.222;5.688;2023-08-31T12:24:49;2.38;;;2.17;;
14770;SDS011;7477;45.222;5.688;2023-08-31T12:28:08;5.28;;;2.10;;
14770;SDS011;7477;45.222;5.688;2023-08-31T12:31:28;4.35;;;2.10;;
14770;SDS011;7477;45.222;5.688;2023-08-31T12:34:47;3.70;;;2.35;;
14770;SDS011;7477;45.222;5.688;2023-08-31T12:38:06;2.58;;;1.92;;
14770;SDS011;7477;45.222;5.688;2023-08-31T12:41:25;2.28;;;1.90;;
14770;SDS011;7477;45.222;5.688;2023-08-31T12:44:45;3.95;;;2.05;;
14770;SDS011;7477;45.222;5.688;2023-08-31T12:48:05;3.78;;;2.22;;
14770;SDS011;7477;45.222;5.688;2023-08-31T12:51:25;2.08;;;1.88;;
14770;SDS011;7477;45.222;5.688;2023-08-31T12:54:44;5.05;;;2.17;;
14770;SDS011;7477;45.222;5.688;2023-08-31T12:58:03;1.98;;;1.63;;
14770;SDS011;7477;45.222;5.688;2023-08-31T13:01:22;3.25;;;1.95;;
14770;SDS011;7477;45.222;5.688;2023-08-31T13:04:42;3.30;;;2.03;;
14770;SDS011;7477;45.222;5.688;2023-08-31T13:08:01;4.45;;;2.17;;
14770;SDS011;7477;45.222;5.688;2023-08-31T13:11:21;4.10;;;1.90;;
14770;SDS011;7477;45.222;5.688;2023-08-31T13:14:43;1.80;;;1.70;;
14770;SDS011;7477;45.222;5.688;2023-08-31T13:18:03;2.83;;;1.98;;
14770;SDS011;7477;45.222;5.688;2023-08-31T13:21:22;4.80;;;2.17;;
14770;SDS011;7477;45.222;5.688;2023-08-31T13:24:41;2.40;;;1.95;;
14770;SDS011;7477;45.222;5.688;2023-08-31T13:28:01;2.35;;;2.03;;
14770;SDS011;7477;45.222;5.688;2023-08-31T13:31:22;2.20;;;1.98;;
14770;SDS011;7477;45.222;5.688;2023-08-31T13:34:42;3.35;;;2.10;;
14770;SDS011;7477;45.222;5.688;2023-08-31T13:38:01;4.93;;;1.95;;
14770;SDS011;7477;45.222;5.688;2023-08-31T13:41:21;4.90;;;2.00;;
14770;SDS011;7477;45.222;5.688;2023-08-31T13:44:40;2.42;;;1.98;;
14770;SDS011;7477;45.222;5.688;2023-08-31T13:47:59;3.60;;;2.05;;
14770;SDS011;7477;45.222;5.688;2023-08-31T13:51:19;2.60;;;2.33;;
14770;SDS011;7477;45.222;5.688;2023-08-31T13:54:38;5.97;;;2.35;;
14770;SDS011;7477;45.222;5.688;2023-08-31T13:58:02;2.85;;;2.00;;
14770;SDS011;7477;45.222;5.688;2023-08-31T14:01:25;2.72;;;2.35;;
14770;SDS011;7477;45.222;5.688;2023-08-31T14:04:45;6.25;;;1.80;;
14770;SDS011;7477;45.222;5.688;2023-08-31T14:08:04;4.40;;;2.15;;
14770;SDS011;7477;45.222;5.688;2023-08-31T14:11:24;4.72;;;2.25;;
14770;SDS011;7477;45.222;5.688;2023-08-31T14:14:43;2.33;;;2.10;;
14770;SDS011;7477;45.222;5.688;2023-08-31T14:18:04;3.75;;;2.28;;
14770;SDS011;7477;45.222;5.688;2023-08-31T14:21:24;2.22;;;2.03;;
14770;SDS011;7477;45.222;5.688;2023-08-31T14:24:43;3.53;;;2.05;;
14770;SDS011;7477;45.222;5.688;2023-08-31T14:28:02;3.08;;;1.83;;
14770;SDS011;7477;45.222;5.688;2023-08-31T14:31:21;4.95;;;1.92;;
14770;SDS011;7477;45.222;5.688;2023-08-31T14:34:41;2.47;;;1.70;;
14770;SDS011;7477;45.222;5.688;2023-08-31T14:38:00;2.25;;;1.80;;
14770;SDS011;7477;45.222;5.688;2023-08-31T14:41:19;3.00;;;2.15;;
14770;SDS011;7477;45.222;5.688;2023-08-31T14:44:38;4.03;;;2.00;;
14770;SDS011;7477;45.222;5.688;2023-08-31T14:47:57;2.72;;;2.28;;
14770;SDS011;7477;45.222;5.688;2023-08-31T14:51:17;4.90;;;1.92;;
14770;SDS011;7477;45.222;5.688;2023-08-31T14:54:36;2.58;;;2.00;;
14770;SDS011;7477;45.222;5.688;2023-08-31T14:57:55;2.47;;;2.17;;
14770;SDS011;7477;45.222;5.688;2023-08-31T15:01:14;2.58;;;2.00;;
14770;SDS011;7477;45.222;5.688;2023-08-31T15:04:33;2.72;;;2.15;;
14770;SDS011;7477;45.222;5.688;2023-08-31T15:07:53;2.53;;;1.98;;
14770;SDS011;7477;45.222;5.688;2023-08-31T15:11:12;3.22;;;2.08;;
14770;SDS011;7477;45.222;5.688;2023-08-31T15:14:32;2.55;;;2.00;;
14770;SDS011;7477;45.222;5.688;2023-08-31T15:17:51;2.92;;;1.83;;
14770;SDS011;7477;45.222;5.688;2023-08-31T15:21:10;2.50;;;2.22;;
14770;SDS011;7477;45.222;5.688;2023-08-31T15:24:29;3.33;;;2.22;;
14770;SDS011;7477;45.222;5.688;2023-08-31T15:27:48;2.88;;;1.83;;
14770;SDS011;7477;45.222;5.688;2023-08-31T15:31:08;2.28;;;1.90;;
14770;SDS011;7477;45.222;5.688;2023-08-31T15:34:30;2.42;;;2.03;;
14770;SDS011;7477;45.222;5.688;2023-08-31T15:37:51;2.03;;;1.77;;
14770;SDS011;7477;45.222;5.688;2023-08-31T15:41:12;3.60;;;2.28;;
14770;SDS011;7477;45.222;5.688;2023-08-31T15:44:32;2.60;;;1.65;;
14770;SDS011;7477;45.222;5.688;2023-08-31T15:47:57;2.92;;;1.80;;
14770;SDS011;7477;45.222;5.688;2023-08-31T15:51:17;2.20;;;1.88;;
14770;SDS011;7477;45.222;5.688;2023-08-31T15:54:36;3.40;;;2.17;;
14770;SDS011;7477;45.222;5.688;2023-08-31T15:57:55;2.35;;;1.90;;
14770;SDS011;7477;45.222;5.688;2023-08-31T16:01:15;2.17;;;1.70;;
14770;SDS011;7477;45.222;5.688;2023-08-31T16:04:34;2.50;;;1.90;;
14770;SDS011;7477;45.222;5.688;2023-08-31T16:07:54;2.72;;;1.80;;
14770;SDS011;7477;45.222;5.688;2023-08-31T16:11:13;2.13;;;1.70;;
14770;SDS011;7477;45.222;5.688;2023-08-31T16:14:32;2.40;;;1.77;;
14770;SDS011;7477;45.222;5.688;2023-08-31T16:17:51;2.00;;;1.80;;
14770;SDS011;7477;45.222;5.688;2023-08-31T16:21:11;2.28;;;1.80;;
14770;SDS011;7477;45.222;5.688;2023-08-31T16:24:30;2.45;;;1.58;;
14770;SDS011;7477;45.222;5.688;2023-08-31T16:27:49;2.25;;;1.95;;
14770;SDS011;7477;45.222;5.688;2023-08-31T16:31:08;2.47;;;1.92;;
14770;SDS011;7477;45.222;5.688;2023-08-31T16:34:29;1.80;;;1.50;;
14770;SDS011;7477;45.222;5.688;2023-08-31T16:37:49;2.53;;;1.90;;
14770;SDS011;7477;45.222;5.688;2023-08-31T16:41:09;3.13;;;1.95;;
14770;SDS011;7477;45.222;5.688;2023-08-31T16:44:29;3.60;;;1.90;;
14770;SDS011;7477;45.222;5.688;2023-08-31T16:47:48;1.95;;;1.75;;
14770;SDS011;7477;45.222;5.688;2023-08-31T16:51:08;2.10;;;1.80;;
14770;SDS011;7477;45.222;5.688;2023-08-31T16:54:27;1.83;;;1.70;;
14770;SDS011;7477;45.222;5.688;2023-08-31T16:57:46;1.80;;;1.70;;
14770;SDS011;7477;45.222;5.688;2023-08-31T17:01:05;2.08;;;1.88;;
14770;SDS011;7477;45.222;5.688;2023-08-31T17:04:25;3.05;;;1.88;;
14770;SDS011;7477;45.222;5.688;2023-08-31T17:07:46;7.45;;;2.20;;
14770;SDS011;7477;45.222;5.688;2023-08-31T17:11:06;2.92;;;1.95;;
14770;SDS011;7477;45.222;5.688;2023-08-31T17:14:26;5.95;;;2.05;;
14770;SDS011;7477;45.222;5.688;2023-08-31T17:17:45;1.88;;;1.73;;
14770;SDS011;7477;45.222;5.688;2023-08-31T17:21:05;2.53;;;2.08;;
14770;SDS011;7477;45.222;5.688;2023-08-31T17:24:25;2.30;;;2.10;;
14770;SDS011;7477;45.222;5.688;2023-08-31T17:27:44;4.45;;;2.05;;
14770;SDS011;7477;45.222;5.688;2023-08-31T17:31:03;2.35;;;2.00;;
14770;SDS011;7477;45.222;5.688;2023-08-31T17:34:22;3.78;;;1.90;;
14770;SDS011;7477;45.222;5.688;2023-08-31T17:37:42;5.60;;;2.08;;
14770;SDS011;7477;45.222;5.688;2023-08-31T17:41:01;2.58;;;1.98;;
14770;SDS011;7477;45.222;5.688;2023-08-31T17:44:22;4.50;;;2.20;;
14770;SDS011;7477;45.222;5.688;2023-08-31T17:47:43;2.63;;;2.00;;
14770;SDS011;7477;45.222;5.688;2023-08-31T17:51:03;3.83;;;1.95;;
14770;SDS011;7477;45.222;5.688;2023-08-31T17:54:22;3.80;;;2.55;;
14770;SDS011;7477;45.222;5.688;2023-08-31T17:57:42;3.53;;;2.13;;
14770;SDS011;7477;45.222;5.688;2023-08-31T18:01:03;3.05;;;2.00;;
14770;SDS011;7477;45.222;5.688;2023-08-31T18:04:23;2.45;;;1.92;;
14770;SDS011;7477;45.222;5.688;2023-08-31T18:07:42;5.47;;;2.30;;
14770;SDS011;7477;45.222;5.688;2023-08-31T18:11:01;7.07;;;2.10;;
14770;SDS011;7477;45.222;5.688;2023-08-31T18:14:21;3.63;;;2.03;;
14770;SDS011;7477;45.222;5.688;2023-08-31T18:17:41;2.03;;;1.83;;
14770;SDS011;7477;45.222;5.688;2023-08-31T18:21:00;2.92;;;2.22;;
14770;SDS011;7477;45.222;5.688;2023-08-31T18:24:19;4.47;;;2.50;;
14770;SDS011;7477;45.222;5.688;2023-08-31T18:27:38;4.13;;;2.17;;
14770;SDS011;7477;45.222;5.688;2023-08-31T18:30:58;3.60;;;1.88;;
14770;SDS011;7477;45.222;5.688;2023-08-31T18:34:21;3.05;;;2.10;;
14770;SDS011;7477;45.222;5.688;2023-08-31T18:37:41;3.55;;;1.92;;
14770;SDS011;7477;45.222;5.688;2023-08-31T18:41:00;2.35;;;1.88;;
14770;SDS011;7477;45.222;5.688;2023-08-31T18:44:22;2.00;;;1.70;;
14770;SDS011;7477;45.222;5.688;2023-08-31T18:47:43;3.00;;;1.98;;
14770;SDS011;7477;45.222;5.688;2023-08-31T18:51:03;2.30;;;1.88;;
14770;SDS011;7477;45.222;5.688;2023-08-31T18:54:22;2.90;;;1.88;;
14770;SDS011;7477;45.222;5.688;2023-08-31T18:57:43;2.45;;;2.10;;
14770;SDS011;7477;45.222;5.688;2023-08-31T19:01:05;2.30;;;2.10;;
14770;SDS011;7477;45.222;5.688;2023-08-31T19:04:24;3.30;;;1.83;;
14770;SDS011;7477;45.222;5.688;2023-08-31T19:07:43;1.95;;;1.60;;
14770;SDS011;7477;45.222;5.688;2023-08-31T19:11:06;4.85;;;2.80;;
14770;SDS011;7477;45.222;5.688;2023-08-31T19:14:27;3.22;;;2.83;;
14770;SDS011;7477;45.222;5.688;2023-08-31T19:17:46;3.72;;;2.58;;
14770;SDS011;7477;45.222;5.688;2023-08-31T19:21:05;3.97;;;2.72;;
14770;SDS011;7477;45.222;5.688;2023-08-31T19:24:24;3.45;;;1.92;;
14770;SDS011;7477;45.222;5.688;2023-08-31T19:27:43;2.70;;;1.98;;
14770;SDS011;7477;45.222;5.688;2023-08-31T19:31:04;3.28;;;1.77;;
14770;SDS011;7477;45.222;5.688;2023-08-31T19:34:24;2.25;;;2.03;;
14770;SDS011;7477;45.222;5.688;2023-08-31T19:37:44;2.85;;;2.25;;
14770;SDS011;7477;45.222;5.688;2023-08-31T19:41:08;2.92;;;2.35;;
14770;SDS011;7477;45.222;5.688;2023-08-31T19:44:28;3.10;;;1.85;;
14770;SDS011;7477;45.222;5.688;2023-08-31T19:47:47;1.65;;;1.50;;
14770;SDS011;7477;45.222;5.688;2023-08-31T19:51:07;2.58;;;2.00;;
14770;SDS011;7477;45.222;5.688;2023-08-31T19:54:27;3.90;;;1.80;;
14770;SDS011;7477;45.222;5.688;2023-08-31T19:57:46;3.05;;;1.90;;
14770;SDS011;7477;45.222;5.688;2023-08-31T20:01:06;3.22;;;2.20;;
14770;SDS011;7477;45.222;5.688;2023-08-31T20:04:25;3.55;;;1.98;;
14770;SDS011;7477;45.222;5.688;2023-08-31T20:07:45;2.53;;;1.65;;
14770;SDS011;7477;45.222;5.688;2023-08-31T20:11:06;2.65;;;1.98;;
14770;SDS011;7477;45.222;5.688;2023-08-31T20:14:25;4.40;;;2.17;;
14770;SDS011;7477;45.222;5.688;2023-08-31T20:17:44;2.78;;;2.13;;
14770;SDS011;7477;45.222;5.688;2023-08-31T20:21:03;2.10;;;1.90;;
14770;SDS011;7477;45.222;5.688;2023-08-31T20:24:23;3.35;;;2.20;;
14770;SDS011;7477;45.222;5.688;2023-08-31T20:27:42;3.40;;;2.00;;
14770;SDS011;7477;45.222;5.688;2023-08-31T20:31:01;2.33;;;2.05;;
14770;SDS011;7477;45.222;5.688;2023-08-31T20:34:22;5.90;;;2.38;;